Station Historical Data
Daily Summary for August 21, 2017 Units:  Metric    English   Both
« Previous Day
Next Day »
Daily Weekly Monthly Yearly Custom
  High: Low: Average:
Temperature: 28.3 °C 17.7 °C 23 °C
Dew Point: 21.2 °C 14.5 °C 18.2 °C
Humidity: 85% 60% 75%
Wind Speed: 16.1km/h 0km/h 3.2km/h
Wind Gust: 22.5km/h - -
Wind- - SW
Pressure: 1019.5 hPa 1015.1 hPa -
Precipitation: 0 mm    
Historical Graphs
 
 
Tabular Data for August 21, 2017
Time Temperature Dew Point Pressure Wind Wind Speed Wind Gust Humidity Rainfall Rate (Hourly)
00:04 18.1 °C 14.6 °C 1019.2 hPa Calm     80% 0 mm
00:09 18.1 °C 14.6 °C 1019.2 hPa Calm     80% 0 mm
00:14 18.1 °C 14.6 °C 1019.2 hPa Calm     80% 0 mm
00:19 18.1 °C 14.6 °C 1019.2 hPa Calm     80% 0 mm
00:24 18.1 °C 14.6 °C 1019.2 hPa Calm     80% 0 mm
00:29 18.1 °C 14.6 °C 1019.2 hPa Calm     80% 0 mm
00:34 18.1 °C 14.6 °C 1019.5 hPa Calm     80% 0 mm
00:39 18.1 °C 14.6 °C 1019.5 hPa Calm     80% 0 mm
00:44 18 °C 14.5 °C 1019.5 hPa Calm     80% 0 mm
00:49 17.9 °C 14.6 °C 1019.5 hPa Calm     81% 0 mm
00:54 17.9 °C 14.6 °C 1019.5 hPa Calm     81% 0 mm
00:59 17.9 °C 14.6 °C 1019.2 hPa Calm     81% 0 mm
01:04 17.8 °C 14.5 °C 1019.2 hPa Calm     81% 0 mm
01:09 17.8 °C 14.5 °C 1019.2 hPa Calm     81% 0 mm
01:14 17.8 °C 14.5 °C 1019.2 hPa Calm     81% 0 mm
01:19 17.8 °C 14.5 °C 1019.2 hPa Calm     81% 0 mm
01:24 17.8 °C 14.7 °C 1019.2 hPa Calm     82% 0 mm
01:29 17.7 °C 14.6 °C 1019.2 hPa Calm     82% 0 mm
01:34 17.7 °C 14.6 °C 1019.2 hPa Calm     82% 0 mm
01:39 17.8 °C 14.7 °C 1019.2 hPa Calm     82% 0 mm
01:44 17.8 °C 14.8 °C 1019.2 hPa Calm     83% 0 mm
01:49 17.8 °C 14.8 °C 1019.2 hPa Calm     83% 0 mm
01:54 17.8 °C 14.8 °C 1018.8 hPa Calm     83% 0 mm
01:59 17.8 °C 14.8 °C 1018.8 hPa Calm     83% 0 mm
02:04 17.7 °C 14.8 °C 1018.8 hPa Calm     83% 0 mm
02:09 17.8 °C 15.1 °C 1018.8 hPa Calm     84% 0 mm
02:14 17.8 °C 15.1 °C 1018.8 hPa Calm     84% 0 mm
02:19 17.8 °C 15.1 °C 1018.8 hPa Calm     84% 0 mm
02:24 17.8 °C 15.1 °C 1019.2 hPa Calm     84% 0 mm
02:29 17.8 °C 15.1 °C 1019.2 hPa Calm     84% 0 mm
02:34 17.8 °C 15.1 °C 1019.2 hPa Calm     84% 0 mm
02:39 17.8 °C 15.1 °C 1019.2 hPa Calm     84% 0 mm
02:44 17.8 °C 15.1 °C 1019.2 hPa Calm     84% 0 mm
02:49 17.8 °C 15.1 °C 1019.2 hPa Calm     84% 0 mm
02:54 17.8 °C 15.1 °C 1019.2 hPa Calm     84% 0 mm
02:59 17.8 °C 15.1 °C 1019.2 hPa Calm     84% 0 mm
03:04 17.9 °C 15.2 °C 1019.2 hPa Calm     84% 0 mm
03:09 17.8 °C 15.1 °C 1019.2 hPa Calm     84% 0 mm
03:14 17.9 °C 15.2 °C 1018.8 hPa Calm     84% 0 mm
03:19 17.9 °C 15.2 °C 1018.8 hPa Calm     84% 0 mm
03:24 17.9 °C 15.3 °C 1018.8 hPa Calm     85% 0 mm
03:29 17.9 °C 15.2 °C 1018.8 hPa Calm     84% 0 mm
03:34 17.9 °C 15.4 °C 1018.8 hPa Calm     85% 0 mm
03:39 17.9 °C 15.4 °C 1018.8 hPa Calm     85% 0 mm
03:44 17.9 °C 15.2 °C 1018.8 hPa Calm     84% 0 mm
03:49 18 °C 15.4 °C 1018.8 hPa Calm     85% 0 mm
03:54 18 °C 15.3 °C 1018.8 hPa Calm     84% 0 mm
03:59 17.9 °C 15.2 °C 1018.8 hPa Calm     84% 0 mm
04:04 17.9 °C 15.2 °C 1018.8 hPa Calm     84% 0 mm
04:09 17.9 °C 15.2 °C 1018.8 hPa Calm     84% 0 mm
04:14 17.9 °C 15.2 °C 1018.8 hPa Calm     84% 0 mm
04:19 17.9 °C 15.2 °C 1018.5 hPa Calm     84% 0 mm
04:24 17.9 °C 15.2 °C 1018.8 hPa Calm     84% 0 mm
04:29 17.9 °C 15.2 °C 1018.5 hPa Calm     84% 0 mm
04:34 17.9 °C 15.2 °C 1018.8 hPa Calm     84% 0 mm
04:39 17.9 °C 15.2 °C 1018.8 hPa Calm     84% 0 mm
04:44 17.9 °C 15.2 °C 1018.8 hPa Calm     84% 0 mm
04:49 17.9 °C 15.2 °C 1018.8 hPa Calm     84% 0 mm
04:54 17.9 °C 15.2 °C 1018.8 hPa Calm     84% 0 mm
04:59 18 °C 15.3 °C 1018.8 hPa Calm     84% 0 mm
05:04 17.9 °C 15.2 °C 1018.8 hPa Calm     84% 0 mm
05:09 17.9 °C 15.2 °C 1018.8 hPa Calm     84% 0 mm
05:14 17.9 °C 15.2 °C 1018.8 hPa Calm     84% 0 mm
05:19 17.9 °C 15.2 °C 1018.8 hPa Calm     84% 0 mm
05:24 17.8 °C 15.1 °C 1018.5 hPa Calm     84% 0 mm
05:29 17.9 °C 15.2 °C 1018.8 hPa Calm     84% 0 mm
05:34 18 °C 15.3 °C 1018.5 hPa Calm     84% 0 mm
05:39 18.2 °C 15.2 °C 1018.5 hPa Calm     83% 0 mm
05:44 18.2 °C 15.3 °C 1018.5 hPa Calm     83% 0 mm
05:49 18.3 °C 15.4 °C 1018.8 hPa Calm     83% 0 mm
05:54 18.3 °C 15.2 °C 1018.8 hPa Calm     82% 0 mm
05:59 18.3 °C 15.2 °C 1018.8 hPa Calm     82% 0 mm
06:04 18.3 °C 15.2 °C 1018.8 hPa Calm     82% 0 mm
06:09 18.2 °C 15.1 °C 1018.8 hPa Calm     82% 0 mm
06:14 18.2 °C 15.1 °C 1018.8 hPa Calm     82% 0 mm
06:19 18.1 °C 15 °C 1018.8 hPa Calm     82% 0 mm
06:24 18.1 °C 14.9 °C 1018.8 hPa Calm     82% 0 mm
06:29 18.1 °C 15 °C 1018.8 hPa Calm     82% 0 mm
06:34 18.2 °C 15.1 °C 1018.8 hPa Calm     82% 0 mm
06:39 18.3 °C 15.2 °C 1018.8 hPa Calm     82% 0 mm
06:44 18.3 °C 15.2 °C 1018.8 hPa Calm     82% 0 mm
06:49 18.4 °C 15.3 °C 1018.8 hPa Calm     82% 0 mm
06:54 18.5 °C 15.4 °C 1018.8 hPa Calm     82% 0 mm
06:59 18.6 °C 15.5 °C 1018.8 hPa Calm     82% 0 mm
07:04 18.8 °C 15.4 °C 1018.8 hPa Calm     81% 0 mm
07:09 19 °C 15.7 °C 1018.8 hPa Calm     81% 0 mm
07:14 19.3 °C 15.9 °C 1018.8 hPa Calm     81% 0 mm
07:19 19.4 °C 15.8 °C 1018.8 hPa Calm     80% 0 mm
07:24 19.6 °C 15.8 °C 1018.8 hPa Calm     79% 0 mm
07:29 19.8 °C 16.1 °C 1018.8 hPa Calm     79% 0 mm
07:34 20.1 °C 16.3 °C 1018.8 hPa Calm     79% 0 mm
07:39 20.3 °C 16.3 °C 1018.8 hPa Calm     78% 0 mm
07:44 20.6 °C 16.4 °C 1018.8 hPa Calm     77% 0 mm
07:49 20.9 °C 16.6 °C 1018.8 hPa Calm     76% 0 mm
07:54 21.2 °C 16.4 °C 1018.8 hPa Calm     74% 0 mm
07:59 21.6 °C 16.6 °C 1019.2 hPa Calm     73% 0 mm
08:04 21.9 °C 16.7 °C 1019.2 hPa Calm     72% 0 mm
08:09 22.3 °C 17.1 °C 1019.5 hPa Calm     72% 0 mm
08:14 22.6 °C 17.1 °C 1019.5 hPa Calm   6.4 km/h 71% 0 mm
08:19 22.6 °C 17.1 °C 1019.5 hPa Calm   4.8 km/h 71% 0 mm
08:24 22.8 °C 17 °C 1019.5 hPa SSW 3.2 km/h 6.4 km/h 70% 0 mm
08:29 22.8 °C 17.1 °C 1019.5 hPa SSW 3.2 km/h 9.7 km/h 70% 0 mm
08:34 22.8 °C 17.1 °C 1019.5 hPa SSW 3.2 km/h 9.7 km/h 70% 0 mm
08:39 22.9 °C 17.4 °C 1019.2 hPa SSW 9.7 km/h 11.3 km/h 71% 0 mm
08:44 22.9 °C 17.4 °C 1019.2 hPa SSW 4.8 km/h 11.3 km/h 71% 0 mm
08:49 23.2 °C 17.6 °C 1019.2 hPa South 4.8 km/h 14.5 km/h 71% 0 mm
08:54 23 °C 17.4 °C 1019.5 hPa SSW 4.8 km/h 14.5 km/h 71% 0 mm
08:59 22.9 °C 17.6 °C 1019.5 hPa SSW 6.4 km/h 14.5 km/h 72% 0 mm
09:04 22.9 °C 17.6 °C 1019.5 hPa SW 4.8 km/h 12.9 km/h 72% 0 mm
09:09 23 °C 17.9 °C 1019.5 hPa SSW 4.8 km/h 11.3 km/h 73% 0 mm
09:14 23.3 °C 17.8 °C 1019.5 hPa SSW 4.8 km/h 11.3 km/h 71% 0 mm
09:19 23.6 °C 18.3 °C 1019.5 hPa SSW 6.4 km/h 11.3 km/h 72% 0 mm
09:24 24.1 °C 18.2 °C 1019.2 hPa SW 8 km/h 12.9 km/h 70% 0 mm
09:29 24.2 °C 18.4 °C 1019.2 hPa SSW 3.2 km/h 11.3 km/h 70% 0 mm
09:34 24.6 °C 18.7 °C 1019.2 hPa SW 8 km/h 9.7 km/h 70% 0 mm
09:39 24.6 °C 18.6 °C 1018.8 hPa SW 3.2 km/h 11.3 km/h 69% 0 mm
09:44 24.9 °C 18.8 °C 1018.8 hPa WSW 3.2 km/h 8 km/h 69% 0 mm
09:49 25.1 °C 18.8 °C 1018.5 hPa SSW 3.2 km/h 12.9 km/h 68% 0 mm
09:54 25.2 °C 18.9 °C 1018.5 hPa South 6.4 km/h 11.3 km/h 68% 0 mm
09:59 25.6 °C 19.2 °C 1018.5 hPa South 3.2 km/h 11.3 km/h 68% 0 mm
10:04 25.8 °C 19.2 °C 1018.5 hPa SW 4.8 km/h 9.7 km/h 67% 0 mm
10:09 26 °C 19.4 °C 1018.5 hPa SW 4.8 km/h 9.7 km/h 67% 0 mm
10:14 26.2 °C 19.4 °C 1018.5 hPa SW 4.8 km/h 9.7 km/h 66% 0 mm
10:19 26.3 °C 19.4 °C 1018.8 hPa SW 4.8 km/h 11.3 km/h 66% 0 mm
10:24 26.3 °C 19.4 °C 1018.5 hPa SW 9.7 km/h 12.9 km/h 66% 0 mm
10:29 26.4 °C 19.3 °C 1018.5 hPa SW 11.3 km/h 16.1 km/h 65% 0 mm
10:34 26.7 °C 20.1 °C 1018.5 hPa SW 6.4 km/h 11.3 km/h 67% 0 mm
10:39 26.8 °C 19.2 °C 1018.5 hPa WNW 11.3 km/h 17.7 km/h 63% 0 mm
10:44 26.7 °C 19.3 °C 1018.5 hPa WSW 4.8 km/h 16.1 km/h 64% 0 mm
10:49 26.8 °C 19.9 °C 1018.5 hPa WSW 9.7 km/h 14.5 km/h 66% 0 mm
10:54 26.9 °C 19.2 °C 1018.5 hPa SW 9.7 km/h 20.9 km/h 63% 0 mm
10:59 26.8 °C 19.2 °C 1018.5 hPa SW 9.7 km/h 20.9 km/h 63% 0 mm
11:04 26.9 °C 19.6 °C 1018.8 hPa SW 9.7 km/h 19.3 km/h 64% 0 mm
11:09 27 °C 19.1 °C 1018.8 hPa SW 9.7 km/h 22.5 km/h 62% 0 mm
11:14 27.3 °C 19.9 °C 1018.8 hPa SW 8 km/h 22.5 km/h 64% 0 mm
11:19 27.5 °C 19.3 °C 1018.5 hPa SW 8 km/h 16.1 km/h 61% 0 mm
11:24 27.5 °C 19.1 °C 1018.8 hPa WNW 9.7 km/h 17.7 km/h 60% 0 mm
11:29 27.3 °C 19.2 °C 1018.8 hPa WNW 8 km/h 19.3 km/h 61% 0 mm
11:34 27.2 °C 19.1 °C 1018.8 hPa WSW 9.7 km/h 19.3 km/h 61% 0 mm
11:39 27.2 °C 19.1 °C 1018.8 hPa WSW 9.7 km/h 20.9 km/h 61% 0 mm
11:44 27.3 °C 19.1 °C 1018.8 hPa WSW 6.4 km/h 17.7 km/h 61% 0 mm
11:49 27.5 °C 19.3 °C 1018.8 hPa SSW 6.4 km/h 16.1 km/h 61% 0 mm
11:54 27.3 °C 18.8 °C 1018.8 hPa WSW 12.9 km/h 17.7 km/h 60% 0 mm
11:59 27.3 °C 19.3 °C 1018.8 hPa SW 9.7 km/h 16.1 km/h 62% 0 mm
12:04 27.3 °C 18.8 °C 1018.8 hPa WSW 9.7 km/h 19.3 km/h 60% 0 mm
12:09 27.2 °C 19.1 °C 1018.8 hPa SW 16.1 km/h 16.1 km/h 61% 0 mm
12:14 27.2 °C 19.5 °C 1018.8 hPa WSW 14.5 km/h 17.7 km/h 63% 0 mm
12:19 27.2 °C 19.8 °C 1018.5 hPa WSW 8 km/h 16.1 km/h 64% 0 mm
12:24 27.3 °C 19.3 °C 1018.5 hPa SW 8 km/h 14.5 km/h 62% 0 mm
12:29 27.3 °C 19.9 °C 1018.5 hPa WSW 6.4 km/h 14.5 km/h 64% 0 mm
12:34 27.1 °C 19.4 °C 1018.5 hPa WSW 8 km/h 14.5 km/h 63% 0 mm
12:39 27.3 °C 19.6 °C 1018.5 hPa WSW 8 km/h 14.5 km/h 63% 0 mm
12:44 27 °C 19.3 °C 1018.5 hPa WSW 8 km/h 17.7 km/h 63% 0 mm
12:49 27.3 °C 19.6 °C 1018.5 hPa WSW 8 km/h 17.7 km/h 63% 0 mm
12:54 27.4 °C 19.8 °C 1018.5 hPa WSW 8 km/h 16.1 km/h 63% 0 mm
12:59 27.6 °C 19.9 °C 1018.5 hPa West 8 km/h 16.1 km/h 63% 0 mm
13:04 27.6 °C 19.9 °C 1018.5 hPa SSW 9.7 km/h 14.5 km/h 63% 0 mm
13:09 27.6 °C 20.4 °C 1018.5 hPa SW 6.4 km/h 12.9 km/h 65% 0 mm
13:14 27.6 °C 19.9 °C 1018.5 hPa West 4.8 km/h 16.1 km/h 63% 0 mm
13:19 27.5 °C 19.8 °C 1018.5 hPa WSW 9.7 km/h 17.7 km/h 63% 0 mm
13:24 27.6 °C 20.4 °C 1018.5 hPa WSW 11.3 km/h 17.7 km/h 65% 0 mm
13:29 27.6 °C 20.4 °C 1018.5 hPa SSW 3.2 km/h 14.5 km/h 65% 0 mm
13:34 27.7 °C 20.7 °C 1018.2 hPa WSW 6.4 km/h 14.5 km/h 66% 0 mm
13:39 27.5 °C 20.6 °C 1018.2 hPa SW 6.4 km/h 12.9 km/h 66% 0 mm
13:44 27.4 °C 20.3 °C 1018.2 hPa SW 6.4 km/h 14.5 km/h 65% 0 mm
13:49 27.2 °C 20.3 °C 1018.2 hPa WSW 8 km/h 16.1 km/h 66% 0 mm
13:54 27.1 °C 20.2 °C 1018.2 hPa WSW 6.4 km/h 17.7 km/h 66% 0 mm
13:59 26.9 °C 20.1 °C 1018.2 hPa WSW 3.2 km/h 12.9 km/h 66% 0 mm
14:04 26.8 °C 20.1 °C 1018.2 hPa West 3.2 km/h 12.9 km/h 67% 0 mm
14:09 26.3 °C 19.9 °C 1018.2 hPa West 8 km/h 14.5 km/h 68% 0 mm
14:14 26.1 °C 20 °C 1018.2 hPa WSW 8 km/h 12.9 km/h 69% 0 mm
14:19 25.9 °C 20 °C 1018.2 hPa SSW 4.8 km/h 12.9 km/h 70% 0 mm
14:24 25.8 °C 20.2 °C 1018.2 hPa SW 4.8 km/h 9.7 km/h 71% 0 mm
14:29 25.8 °C 20.2 °C 1018.2 hPa WSW 8 km/h 11.3 km/h 71% 0 mm
14:34 25.6 °C 19.9 °C 1018.2 hPa WSW 6.4 km/h 12.9 km/h 71% 0 mm
14:39 25.3 °C 20.2 °C 1017.8 hPa WSW 6.4 km/h 12.9 km/h 73% 0 mm
14:44 25.3 °C 20.3 °C 1017.8 hPa WSW 6.4 km/h 11.3 km/h 74% 0 mm
14:49 25.3 °C 20.4 °C 1017.8 hPa SW 4.8 km/h 11.3 km/h 74% 0 mm
14:54 25.2 °C 20.3 °C 1017.8 hPa SW 6.4 km/h 12.9 km/h 74% 0 mm
14:59 25.3 °C 20.6 °C 1017.8 hPa WSW 6.4 km/h 12.9 km/h 75% 0 mm
15:04 25.7 °C 21.1 °C 1017.8 hPa WSW 3.2 km/h 16.1 km/h 76% 0 mm
15:09 25.6 °C 20.2 °C 1017.8 hPa WSW 6.4 km/h 12.9 km/h 72% 0 mm
15:14 25.8 °C 20.6 °C 1017.8 hPa WSW 6.4 km/h 16.1 km/h 73% 0 mm
15:19 26.1 °C 20.4 °C 1017.8 hPa West 8 km/h 12.9 km/h 71% 0 mm
15:24 26.3 °C 20.7 °C 1017.8 hPa WSW 1.6 km/h 16.1 km/h 71% 0 mm
15:29 26.8 °C 20.8 °C 1017.8 hPa SW 9.7 km/h 12.9 km/h 70% 0 mm
15:34 26.8 °C 20.4 °C 1017.8 hPa WSW 6.4 km/h 14.5 km/h 68% 0 mm
15:39 27.2 °C 21 °C 1017.5 hPa WSW 6.4 km/h 14.5 km/h 69% 0 mm
15:44 27.2 °C 20.8 °C 1017.5 hPa WSW 6.4 km/h 14.5 km/h 68% 0 mm
15:49 27.3 °C 20.4 °C 1017.5 hPa SSW 11.3 km/h 16.1 km/h 66% 0 mm
15:54 27.6 °C 20.6 °C 1017.5 hPa WSW 1.6 km/h 12.9 km/h 66% 0 mm
15:59 27.9 °C 20.7 °C 1017.5 hPa SW 11.3 km/h 16.1 km/h 65% 0 mm
16:04 27.9 °C 20.7 °C 1017.5 hPa SW 6.4 km/h 16.1 km/h 65% 0 mm
16:09 27.9 °C 20.8 °C 1017.5 hPa SW 6.4 km/h 16.1 km/h 65% 0 mm
16:14 27.9 °C 20.4 °C 1017.5 hPa SW 8 km/h 16.1 km/h 64% 0 mm
16:19 27.9 °C 20.8 °C 1017.5 hPa West 6.4 km/h 12.9 km/h 65% 0 mm
16:24 28.3 °C 21.1 °C 1017.2 hPa SW 9.7 km/h 12.9 km/h 65% 0 mm
16:29 28.3 °C 20.6 °C 1017.5 hPa SW 3.2 km/h 12.9 km/h 63% 0 mm
16:34 28.1 °C 20.6 °C 1017.5 hPa WSW 3.2 km/h 14.5 km/h 64% 0 mm
16:39 27.9 °C 20.2 °C 1017.2 hPa SW 8 km/h 14.5 km/h 63% 0 mm
16:44 27.8 °C 20.3 °C 1017.2 hPa SW 8 km/h 16.1 km/h 64% 0 mm
16:49 27.9 °C 20.2 °C 1017.2 hPa SW 8 km/h 16.1 km/h 63% 0 mm
16:54 28 °C 20.8 °C 1017.2 hPa SW 6.4 km/h 14.5 km/h 65% 0 mm
16:59 28.2 °C 20.7 °C 1017.2 hPa SW 1.6 km/h 12.9 km/h 64% 0 mm
17:04 28 °C 20.3 °C 1016.8 hPa SW 8 km/h 12.9 km/h 63% 0 mm
17:09 27.9 °C 20.7 °C 1016.8 hPa SW 6.4 km/h 12.9 km/h 65% 0 mm
17:14 27.9 °C 20.7 °C 1016.8 hPa WSW 6.4 km/h 11.3 km/h 65% 0 mm
17:19 27.8 °C 20.4 °C 1016.8 hPa WSW 6.4 km/h 14.5 km/h 64% 0 mm
17:24 27.7 °C 20.6 °C 1016.8 hPa SW 6.4 km/h 14.5 km/h 65% 0 mm
17:29 27.8 °C 20.9 °C 1016.8 hPa SW 6.4 km/h 12.9 km/h 66% 0 mm
17:34 27.7 °C 20.5 °C 1016.8 hPa WSW 8 km/h 12.9 km/h 65% 0 mm
17:39 27.7 °C 20.7 °C 1016.8 hPa WSW 6.4 km/h 12.9 km/h 66% 0 mm
17:44 27.6 °C 20.9 °C 1016.8 hPa WSW 6.4 km/h 12.9 km/h 67% 0 mm
17:49 27.3 °C 20.7 °C 1016.8 hPa WSW 4.8 km/h 14.5 km/h 67% 0 mm
17:54 27.3 °C 20.7 °C 1016.8 hPa SW 4.8 km/h 11.3 km/h 67% 0 mm
17:59 27.3 °C 21.2 °C 1016.8 hPa SSW 8 km/h 9.7 km/h 69% 0 mm
18:04 27.2 °C 21 °C 1016.8 hPa WSW 4.8 km/h 11.3 km/h 69% 0 mm
18:09 27 °C 20.6 °C 1016.8 hPa SSW 4.8 km/h 12.9 km/h 68% 0 mm
18:14 26.9 °C 20.8 °C 1016.8 hPa SW 4.8 km/h 14.5 km/h 69% 0 mm
18:19 26.8 °C 20.8 °C 1016.5 hPa WSW 4.8 km/h 14.5 km/h 70% 0 mm
18:24 26.8 °C 20.8 °C 1016.8 hPa WSW 4.8 km/h 9.7 km/h 70% 0 mm
18:29 26.7 °C 21 °C 1016.8 hPa WSW 4.8 km/h 9.7 km/h 71% 0 mm
18:34 26.6 °C 20.4 °C 1016.5 hPa WSW 11.3 km/h 12.9 km/h 69% 0 mm
18:39 26.4 °C 20.5 °C 1016.5 hPa WSW 6.4 km/h 12.9 km/h 70% 0 mm
18:44 26.2 °C 20.3 °C 1016.5 hPa SSW 3.2 km/h 11.3 km/h 70% 0 mm
18:49 26.1 °C 20.4 °C 1016.5 hPa SSW 3.2 km/h 9.7 km/h 71% 0 mm
18:54 26.1 °C 20.4 °C 1016.5 hPa WSW 9.7 km/h 9.7 km/h 71% 0 mm
18:59 25.9 °C 20.3 °C 1016.5 hPa SW 3.2 km/h 12.9 km/h 71% 0 mm
19:04 25.8 °C 20.2 °C 1016.5 hPa WSW 3.2 km/h 9.7 km/h 71% 0 mm
19:09 25.8 °C 20.1 °C 1016.5 hPa WSW 4.8 km/h 12.9 km/h 71% 0 mm
19:14 25.7 °C 20.2 °C 1016.8 hPa WSW 6.4 km/h 12.9 km/h 72% 0 mm
19:19 25.6 °C 20.4 °C 1016.8 hPa WSW 6.4 km/h 11.3 km/h 73% 0 mm
19:24 25.6 °C 20.3 °C 1016.8 hPa WSW 4.8 km/h 11.3 km/h 73% 0 mm
19:29 25.4 °C 20.2 °C 1016.8 hPa WSW 4.8 km/h 11.3 km/h 73% 0 mm
19:34 25.3 °C 20.1 °C 1016.8 hPa WSW 1.6 km/h 12.9 km/h 73% 0 mm
19:39 25.2 °C 20 °C 1016.8 hPa WSW 3.2 km/h 8 km/h 73% 0 mm
19:44 25.1 °C 20.1 °C 1016.8 hPa WSW 3.2 km/h 8 km/h 74% 0 mm
19:49 24.9 °C 20 °C 1016.8 hPa WSW 1.6 km/h 4.8 km/h 74% 0 mm
19:54 24.8 °C 20.1 °C 1016.5 hPa Calm     75% 0 mm
19:59 24.7 °C 19.9 °C 1016.5 hPa Calm     75% 0 mm
20:04 24.6 °C 20.1 °C 1016.1 hPa Calm   1.6 km/h 76% 0 mm
20:09 24.5 °C 20 °C 1016.1 hPa WSW 1.6 km/h 4.8 km/h 76% 0 mm
20:14 24.4 °C 19.9 °C 1016.1 hPa Calm   4.8 km/h 76% 0 mm
20:19 24.3 °C 20 °C 1016.1 hPa Calm   3.2 km/h 77% 0 mm
20:24 24.1 °C 19.8 °C 1016.1 hPa Calm     77% 0 mm
20:29 24 °C 19.9 °C 1016.1 hPa Calm     78% 0 mm
20:34 23.8 °C 19.8 °C 1016.5 hPa Calm     78% 0 mm
20:39 23.7 °C 19.8 °C 1016.5 hPa Calm     79% 0 mm
20:44 23.6 °C 19.9 °C 1016.5 hPa Calm     80% 0 mm
20:49 23.3 °C 19.7 °C 1016.1 hPa Calm     80% 0 mm
20:54 23.2 °C 19.7 °C 1016.1 hPa Calm     81% 0 mm
20:59 23.1 °C 19.7 °C 1016.1 hPa Calm     81% 0 mm
21:04 23.1 °C 19.8 °C 1016.1 hPa Calm     82% 0 mm
21:09 23 °C 19.8 °C 1016.1 hPa Calm     82% 0 mm
21:14 22.9 °C 19.7 °C 1016.1 hPa Calm     82% 0 mm
21:19 22.8 °C 19.6 °C 1016.1 hPa Calm     82% 0 mm
21:24 22.8 °C 19.6 °C 1016.1 hPa Calm     82% 0 mm
21:29 22.7 °C 19.7 °C 1016.1 hPa Calm     83% 0 mm
21:34 22.7 °C 19.6 °C 1016.1 hPa Calm     83% 0 mm
21:39 22.6 °C 19.6 °C 1016.1 hPa Calm     83% 0 mm
21:44 22.6 °C 19.8 °C 1016.1 hPa Calm     84% 0 mm
21:49 22.8 °C 19.9 °C 1016.1 hPa Calm     84% 0 mm
21:54 22.7 °C 19.7 °C 1016.5 hPa Calm     83% 0 mm
21:59 22.7 °C 19.6 °C 1016.1 hPa Calm     83% 0 mm
22:04 22.6 °C 19.6 °C 1016.1 hPa Calm     83% 0 mm
22:09 22.6 °C 19.7 °C 1016.1 hPa Calm     84% 0 mm
22:14 22.4 °C 19.6 °C 1016.1 hPa Calm     84% 0 mm
22:19 22.3 °C 19.4 °C 1016.1 hPa Calm     84% 0 mm
22:24 22.2 °C 19.4 °C 1016.1 hPa Calm     84% 0 mm
22:29 22.3 °C 19.6 °C 1015.8 hPa Calm   6.4 km/h 85% 0 mm
22:34 22.3 °C 19.7 °C 1015.8 hPa SSE 1.6 km/h 4.8 km/h 85% 0 mm
22:39 22.4 °C 19.8 °C 1015.8 hPa Calm   4.8 km/h 85% 0 mm
22:44 22.4 °C 19.6 °C 1015.8 hPa Calm     84% 0 mm
22:49 22.3 °C 19.4 °C 1015.5 hPa Calm   1.6 km/h 84% 0 mm
22:54 22.2 °C 19.2 °C 1015.5 hPa Calm   4.8 km/h 83% 0 mm
22:59 22.2 °C 19.3 °C 1015.5 hPa Calm   4.8 km/h 84% 0 mm
23:04 22.1 °C 19.3 °C 1015.5 hPa Calm   4.8 km/h 84% 0 mm
23:09 22 °C 19 °C 1015.5 hPa Calm   3.2 km/h 83% 0 mm
23:20 21.8 °C 19 °C 1015.5 hPa Calm     84% 0 mm
23:29 21.7 °C 18.7 °C 1015.5 hPa Calm     83% 0 mm
23:34 21.7 °C 18.7 °C 1015.1 hPa Calm     83% 0 mm
23:39 21.6 °C 18.6 °C 1015.1 hPa Calm     83% 0 mm
23:44 21.6 °C 18.6 °C 1015.1 hPa Calm     83% 0 mm
23:49 21.4 °C 18.4 °C 1015.1 hPa Calm     83% 0 mm
23:54 21.4 °C 18.4 °C 1015.1 hPa Calm     83% 0 mm
23:59 21.4 °C 18.4 °C 1015.1 hPa Calm     83% 0 mm
Buffalo, New York, USA
Compliments of Weather Underground - 2.5 mb